sensor_id;sensor_type;location;lat;lon;timestamp;temperature;humidity
8481;DHT22;4277;51.354;6.740;2022-07-24T06:44:36;19.30;99.90
8481;DHT22;4277;51.354;6.740;2022-07-24T06:47:04;20.10;99.90
8481;DHT22;4277;51.354;6.740;2022-07-24T06:51:55;20.20;99.90
8481;DHT22;4277;51.354;6.740;2022-07-24T06:54:21;20.40;99.90
8481;DHT22;4277;51.354;6.740;2022-07-24T06:56:46;20.50;99.90
8481;DHT22;4277;51.354;6.740;2022-07-24T06:59:12;20.50;99.90
8481;DHT22;4277;51.354;6.740;2022-07-24T07:01:37;20.60;99.90
8481;DHT22;4277;51.354;6.740;2022-07-24T07:04:03;20.60;99.90
8481;DHT22;4277;51.354;6.740;2022-07-24T07:06:29;20.70;99.90
8481;DHT22;4277;51.354;6.740;2022-07-24T07:11:20;20.70;99.90
8481;DHT22;4277;51.354;6.740;2022-07-24T07:13:46;20.70;99.90
8481;DHT22;4277;51.354;6.740;2022-07-24T07:16:11;20.80;99.90
8481;DHT22;4277;51.354;6.740;2022-07-24T07:18:37;20.90;99.90
8481;DHT22;4277;51.354;6.740;2022-07-24T07:21:03;20.90;97.80
8481;DHT22;4277;51.354;6.740;2022-07-24T07:23:28;20.90;99.90
8481;DHT22;4277;51.354;6.740;2022-07-24T07:25:54;20.90;99.40
8481;DHT22;4277;51.354;6.740;2022-07-24T07:28:20;20.90;99.70
8481;DHT22;4277;51.354;6.740;2022-07-24T07:33:12;21.10;99.90
8481;DHT22;4277;51.354;6.740;2022-07-24T07:35:38;21.20;99.30
8481;DHT22;4277;51.354;6.740;2022-07-24T07:38:04;21.30;99.90
8481;DHT22;4277;51.354;6.740;2022-07-24T07:45:21;21.30;97.90
8481;DHT22;4277;51.354;6.740;2022-07-24T07:55:06;21.60;99.10
8481;DHT22;4277;51.354;6.740;2022-07-24T07:57:31;21.90;97.10
8481;DHT22;4277;51.354;6.740;2022-07-24T07:59:57;21.80;97.70
8481;DHT22;4277;51.354;6.740;2022-07-24T08:02:22;21.90;96.20
8481;DHT22;4277;51.354;6.740;2022-07-24T08:04:48;21.90;96.80
8481;DHT22;4277;51.354;6.740;2022-07-24T08:07:14;22.00;96.30
8481;DHT22;4277;51.354;6.740;2022-07-24T08:09:39;22.10;96.70
8481;DHT22;4277;51.354;6.740;2022-07-24T08:12:05;22.10;96.80
8481;DHT22;4277;51.354;6.740;2022-07-24T08:14:30;22.20;95.10
8481;DHT22;4277;51.354;6.740;2022-07-24T08:16:56;22.30;96.30
8481;DHT22;4277;51.354;6.740;2022-07-24T08:19:22;22.30;96.10
8481;DHT22;4277;51.354;6.740;2022-07-24T08:21:47;22.40;94.10
8481;DHT22;4277;51.354;6.740;2022-07-24T08:24:13;22.40;95.60
8481;DHT22;4277;51.354;6.740;2022-07-24T08:26:38;22.60;94.50
8481;DHT22;4277;51.354;6.740;2022-07-24T08:29:04;22.60;95.70
8481;DHT22;4277;51.354;6.740;2022-07-24T08:31:31;22.70;93.20
8481;DHT22;4277;51.354;6.740;2022-07-24T08:33:56;22.70;92.70
8481;DHT22;4277;51.354;6.740;2022-07-24T08:36:22;22.70;94.40
8481;DHT22;4277;51.354;6.740;2022-07-24T08:38:47;22.90;93.10
8481;DHT22;4277;51.354;6.740;2022-07-24T08:41:13;22.90;92.30
8481;DHT22;4277;51.354;6.740;2022-07-24T08:43:39;23.00;92.40
8481;DHT22;4277;51.354;6.740;2022-07-24T08:46:09;23.00;93.50
8481;DHT22;4277;51.354;6.740;2022-07-24T08:48:39;23.10;91.80
8481;DHT22;4277;51.354;6.740;2022-07-24T08:51:07;22.90;96.10
8481;DHT22;4277;51.354;6.740;2022-07-24T08:53:33;22.90;95.00
8481;DHT22;4277;51.354;6.740;2022-07-24T08:55:59;23.00;94.30
8481;DHT22;4277;51.354;6.740;2022-07-24T08:58:24;23.00;96.00
8481;DHT22;4277;51.354;6.740;2022-07-24T09:00:50;23.20;92.70
8481;DHT22;4277;51.354;6.740;2022-07-24T09:03:15;23.30;90.90
8481;DHT22;4277;51.354;6.740;2022-07-24T09:08:20;23.50;90.20
8481;DHT22;4277;51.354;6.740;2022-07-24T09:10:59;23.50;90.40
8481;DHT22;4277;51.354;6.740;2022-07-24T09:13:27;23.40;94.40
8481;DHT22;4277;51.354;6.740;2022-07-24T09:15:55;23.60;87.40
8481;DHT22;4277;51.354;6.740;2022-07-24T09:18:29;23.70;88.00
8481;DHT22;4277;51.354;6.740;2022-07-24T09:20:55;23.60;89.30
8481;DHT22;4277;51.354;6.740;2022-07-24T09:23:21;23.50;93.90
8481;DHT22;4277;51.354;6.740;2022-07-24T09:25:54;23.60;90.20
8481;DHT22;4277;51.354;6.740;2022-07-24T09:28:20;23.90;86.60
8481;DHT22;4277;51.354;6.740;2022-07-24T09:30:46;24.10;84.90
8481;DHT22;4277;51.354;6.740;2022-07-24T09:33:15;24.10;83.60
8481;DHT22;4277;51.354;6.740;2022-07-24T09:35:46;24.20;84.50
8481;DHT22;4277;51.354;6.740;2022-07-24T09:38:17;24.00;92.20
8481;DHT22;4277;51.354;6.740;2022-07-24T09:40:44;24.20;86.40
8481;DHT22;4277;51.354;6.740;2022-07-24T09:43:26;24.30;82.00
8481;DHT22;4277;51.354;6.740;2022-07-24T09:48:21;24.30;86.50
8481;DHT22;4277;51.354;6.740;2022-07-24T09:50:52;24.60;86.40
8481;DHT22;4277;51.354;6.740;2022-07-24T09:53:23;24.70;81.90
8481;DHT22;4277;51.354;6.740;2022-07-24T09:58:33;25.00;69.40
8481;DHT22;4277;51.354;6.740;2022-07-24T10:01:00;25.10;75.70
8481;DHT22;4277;51.354;6.740;2022-07-24T10:03:33;25.20;69.40
8481;DHT22;4277;51.354;6.740;2022-07-24T10:06:01;24.90;86.90
8481;DHT22;4277;51.354;6.740;2022-07-24T10:08:28;25.00;75.80
8481;DHT22;4277;51.354;6.740;2022-07-24T10:10:55;25.20;70.30
8481;DHT22;4277;51.354;6.740;2022-07-24T10:13:21;25.40;68.30
8481;DHT22;4277;51.354;6.740;2022-07-24T10:26:42;25.80;64.30
8481;DHT22;4277;51.354;6.740;2022-07-24T10:29:13;25.90;70.00
8481;DHT22;4277;51.354;6.740;2022-07-24T10:31:41;25.80;61.20
8481;DHT22;4277;51.354;6.740;2022-07-24T10:34:30;26.00;61.40
8481;DHT22;4277;51.354;6.740;2022-07-24T10:39:54;26.20;52.50
8481;DHT22;4277;51.354;6.740;2022-07-24T10:42:23;26.40;51.20
8481;DHT22;4277;51.354;6.740;2022-07-24T10:45:18;26.60;44.80
8481;DHT22;4277;51.354;6.740;2022-07-24T10:47:45;26.70;42.80
8481;DHT22;4277;51.354;6.740;2022-07-24T10:50:12;26.70;42.40
8481;DHT22;4277;51.354;6.740;2022-07-24T10:52:40;26.80;42.50
8481;DHT22;4277;51.354;6.740;2022-07-24T10:55:32;26.70;34.50
8481;DHT22;4277;51.354;6.740;2022-07-24T10:58:01;26.90;41.10
8481;DHT22;4277;51.354;6.740;2022-07-24T11:03:06;27.10;37.10
8481;DHT22;4277;51.354;6.740;2022-07-24T11:05:36;27.00;35.00
8481;DHT22;4277;51.354;6.740;2022-07-24T11:10:45;27.10;25.60
8481;DHT22;4277;51.354;6.740;2022-07-24T11:18:39;27.10;36.60
8481;DHT22;4277;51.354;6.740;2022-07-24T11:21:06;27.30;31.10
8481;DHT22;4277;51.354;6.740;2022-07-24T11:23:32;27.30;34.30
8481;DHT22;4277;51.354;6.740;2022-07-24T11:31:38;27.10;34.50
8481;DHT22;4277;51.354;6.740;2022-07-24T11:34:04;27.10;25.70
8481;DHT22;4277;51.354;6.740;2022-07-24T11:36:31;27.00;27.40
8481;DHT22;4277;51.354;6.740;2022-07-24T11:38:57;27.10;26.10
8481;DHT22;4277;51.354;6.740;2022-07-24T11:41:22;27.20;30.50
8481;DHT22;4277;51.354;6.740;2022-07-24T11:43:54;27.20;23.20
8481;DHT22;4277;51.354;6.740;2022-07-24T11:46:37;27.20;24.90
8481;DHT22;4277;51.354;6.740;2022-07-24T11:49:06;27.20;26.50
8481;DHT22;4277;51.354;6.740;2022-07-24T11:51:40;27.30;25.90
8481;DHT22;4277;51.354;6.740;2022-07-24T11:54:06;27.40;22.40
8481;DHT22;4277;51.354;6.740;2022-07-24T11:56:32;27.50;23.00
8481;DHT22;4277;51.354;6.740;2022-07-24T11:58:58;27.50;27.10
8481;DHT22;4277;51.354;6.740;2022-07-24T12:01:23;27.60;22.50
8481;DHT22;4277;51.354;6.740;2022-07-24T12:03:50;27.60;26.70
8481;DHT22;4277;51.354;6.740;2022-07-24T12:06:18;27.70;19.00
8481;DHT22;4277;51.354;6.740;2022-07-24T12:08:43;27.70;20.40
8481;DHT22;4277;51.354;6.740;2022-07-24T12:11:09;28.00;17.80
8481;DHT22;4277;51.354;6.740;2022-07-24T12:13:40;28.10;15.80
8481;DHT22;4277;51.354;6.740;2022-07-24T12:16:07;27.90;25.60
8481;DHT22;4277;51.354;6.740;2022-07-24T12:18:32;28.10;13.40
8481;DHT22;4277;51.354;6.740;2022-07-24T12:20:59;28.10;9.20
8481;DHT22;4277;51.354;6.740;2022-07-24T12:23:25;28.20;18.40
8481;DHT22;4277;51.354;6.740;2022-07-24T12:25:51;28.30;9.30
8481;DHT22;4277;51.354;6.740;2022-07-24T12:28:18;27.80;14.80
8481;DHT22;4277;51.354;6.740;2022-07-24T12:35:59;28.40;12.50
8481;DHT22;4277;51.354;6.740;2022-07-24T12:38:33;28.60;7.80
8481;DHT22;4277;51.354;6.740;2022-07-24T12:41:06;28.60;11.00
8481;DHT22;4277;51.354;6.740;2022-07-24T12:43:33;28.60;14.20
8481;DHT22;4277;51.354;6.740;2022-07-24T12:46:07;28.60;9.30
8481;DHT22;4277;51.354;6.740;2022-07-24T12:48:33;28.60;14.20
8481;DHT22;4277;51.354;6.740;2022-07-24T12:53:33;28.80;8.00
8481;DHT22;4277;51.354;6.740;2022-07-24T12:56:20;29.00;10.10
8481;DHT22;4277;51.354;6.740;2022-07-24T12:58:53;28.70;12.30
8481;DHT22;4277;51.354;6.740;2022-07-24T13:01:19;28.70;6.70
8481;DHT22;4277;51.354;6.740;2022-07-24T13:04:01;28.90;4.90
8481;DHT22;4277;51.354;6.740;2022-07-24T13:06:41;29.00;6.10
8481;DHT22;4277;51.354;6.740;2022-07-24T13:09:09;29.00;7.90
8481;DHT22;4277;51.354;6.740;2022-07-24T13:11:37;28.90;16.10
8481;DHT22;4277;51.354;6.740;2022-07-24T13:14:04;29.00;3.80
8481;DHT22;4277;51.354;6.740;2022-07-24T13:16:31;29.20;8.60
8481;DHT22;4277;51.354;6.740;2022-07-24T13:18:58;29.10;4.10
8481;DHT22;4277;51.354;6.740;2022-07-24T13:21:23;29.30;6.80
8481;DHT22;4277;51.354;6.740;2022-07-24T13:23:49;29.60;14.00
8481;DHT22;4277;51.354;6.740;2022-07-24T13:26:15;29.50;1.00
8481;DHT22;4277;51.354;6.740;2022-07-24T13:28:40;29.50;1.00
8481;DHT22;4277;51.354;6.740;2022-07-24T13:31:06;29.50;1.00
8481;DHT22;4277;51.354;6.740;2022-07-24T13:33:31;29.50;1.00
8481;DHT22;4277;51.354;6.740;2022-07-24T13:35:57;29.60;1.00
8481;DHT22;4277;51.354;6.740;2022-07-24T13:38:23;29.70;1.00
8481;DHT22;4277;51.354;6.740;2022-07-24T13:40:48;29.70;1.00
8481;DHT22;4277;51.354;6.740;2022-07-24T13:43:14;29.70;1.00
8481;DHT22;4277;51.354;6.740;2022-07-24T13:45:39;29.70;1.00
8481;DHT22;4277;51.354;6.740;2022-07-24T13:48:05;29.70;1.00
8481;DHT22;4277;51.354;6.740;2022-07-24T13:50:30;29.70;1.00
8481;DHT22;4277;51.354;6.740;2022-07-24T13:52:56;29.80;1.00
8481;DHT22;4277;51.354;6.740;2022-07-24T13:55:22;29.70;1.00
8481;DHT22;4277;51.354;6.740;2022-07-24T13:57:47;29.80;1.00
8481;DHT22;4277;51.354;6.740;2022-07-24T14:00:13;30.00;1.00
8481;DHT22;4277;51.354;6.740;2022-07-24T14:02:39;30.00;1.00
8481;DHT22;4277;51.354;6.740;2022-07-24T14:05:05;30.20;1.00
8481;DHT22;4277;51.354;6.740;2022-07-24T14:07:31;30.10;1.00
8481;DHT22;4277;51.354;6.740;2022-07-24T14:09:56;30.30;1.00
8481;DHT22;4277;51.354;6.740;2022-07-24T14:12:22;30.30;1.00
8481;DHT22;4277;51.354;6.740;2022-07-24T14:14:47;30.50;1.00
8481;DHT22;4277;51.354;6.740;2022-07-24T14:24:31;30.70;17.40
8481;DHT22;4277;51.354;6.740;2022-07-24T14:26:57;29.90;6.30
8481;DHT22;4277;51.354;6.740;2022-07-24T14:29:23;30.20;1.00
8481;DHT22;4277;51.354;6.740;2022-07-24T14:31:49;30.40;1.00
8481;DHT22;4277;51.354;6.740;2022-07-24T14:34:14;30.50;1.00
8481;DHT22;4277;51.354;6.740;2022-07-24T14:36:40;30.60;1.00
8481;DHT22;4277;51.354;6.740;2022-07-24T14:39:06;30.60;1.00
8481;DHT22;4277;51.354;6.740;2022-07-24T14:41:32;30.70;1.00
8481;DHT22;4277;51.354;6.740;2022-07-24T14:43:57;30.80;1.00
8481;DHT22;4277;51.354;6.740;2022-07-24T14:46:23;30.80;1.00
8481;DHT22;4277;51.354;6.740;2022-07-24T14:48:48;30.80;1.00
8481;DHT22;4277;51.354;6.740;2022-07-24T14:51:14;30.70;1.00
8481;DHT22;4277;51.354;6.740;2022-07-24T14:53:39;30.80;1.00
8481;DHT22;4277;51.354;6.740;2022-07-24T14:56:05;30.90;1.00
8481;DHT22;4277;51.354;6.740;2022-07-24T14:58:31;30.60;1.00
8481;DHT22;4277;51.354;6.740;2022-07-24T15:00:56;30.80;1.00
8481;DHT22;4277;51.354;6.740;2022-07-24T15:03:22;30.70;1.00
8481;DHT22;4277;51.354;6.740;2022-07-24T15:05:47;30.80;1.00
8481;DHT22;4277;51.354;6.740;2022-07-24T15:08:13;30.60;1.00
8481;DHT22;4277;51.354;6.740;2022-07-24T15:10:39;30.70;1.00
8481;DHT22;4277;51.354;6.740;2022-07-24T15:13:04;30.80;1.00
8481;DHT22;4277;51.354;6.740;2022-07-24T15:15:30;31.00;1.00
8481;DHT22;4277;51.354;6.740;2022-07-24T15:17:56;31.10;1.00
8481;DHT22;4277;51.354;6.740;2022-07-24T15:20:21;31.20;1.00
8481;DHT22;4277;51.354;6.740;2022-07-24T15:22:47;30.80;1.00
8481;DHT22;4277;51.354;6.740;2022-07-24T15:25:12;31.00;1.00
8481;DHT22;4277;51.354;6.740;2022-07-24T15:27:38;31.20;1.00
8481;DHT22;4277;51.354;6.740;2022-07-24T15:30:04;31.30;1.00
8481;DHT22;4277;51.354;6.740;2022-07-24T15:32:30;31.20;1.00
8481;DHT22;4277;51.354;6.740;2022-07-24T15:34:55;31.10;1.00
8481;DHT22;4277;51.354;6.740;2022-07-24T15:37:21;31.40;1.00
8481;DHT22;4277;51.354;6.740;2022-07-24T15:39:46;31.40;1.00
8481;DHT22;4277;51.354;6.740;2022-07-24T15:42:12;31.50;1.00
8481;DHT22;4277;51.354;6.740;2022-07-24T15:44:37;31.40;1.00
8481;DHT22;4277;51.354;6.740;2022-07-24T15:47:03;31.20;1.00
8481;DHT22;4277;51.354;6.740;2022-07-24T15:49:29;30.60;1.00
8481;DHT22;4277;51.354;6.740;2022-07-24T15:51:54;31.00;1.00
8481;DHT22;4277;51.354;6.740;2022-07-24T15:54:20;31.30;1.00
8481;DHT22;4277;51.354;6.740;2022-07-24T15:56:45;31.50;1.00
8481;DHT22;4277;51.354;6.740;2022-07-24T15:59:11;31.80;1.00
8481;DHT22;4277;51.354;6.740;2022-07-24T16:01:37;31.80;1.00
8481;DHT22;4277;51.354;6.740;2022-07-24T16:04:02;31.60;1.00
8481;DHT22;4277;51.354;6.740;2022-07-24T16:06:28;31.70;1.00
8481;DHT22;4277;51.354;6.740;2022-07-24T16:08:54;31.90;1.00
8481;DHT22;4277;51.354;6.740;2022-07-24T16:11:19;32.10;1.00
8481;DHT22;4277;51.354;6.740;2022-07-24T16:13:45;32.30;1.00
8481;DHT22;4277;51.354;6.740;2022-07-24T16:16:10;32.30;1.00
8481;DHT22;4277;51.354;6.740;2022-07-24T16:18:36;32.50;1.00
8481;DHT22;4277;51.354;6.740;2022-07-24T16:21:03;32.60;1.00
8481;DHT22;4277;51.354;6.740;2022-07-24T16:23:29;32.70;1.00
8481;DHT22;4277;51.354;6.740;2022-07-24T16:25:54;32.90;6.00
8481;DHT22;4277;51.354;6.740;2022-07-24T16:28:20;32.80;1.00
8481;DHT22;4277;51.354;6.740;2022-07-24T16:30:45;32.70;1.00
8481;DHT22;4277;51.354;6.740;2022-07-24T16:33:11;32.90;1.00
8481;DHT22;4277;51.354;6.740;2022-07-24T16:35:36;33.00;1.00
8481;DHT22;4277;51.354;6.740;2022-07-24T16:38:02;33.10;1.00
8481;DHT22;4277;51.354;6.740;2022-07-24T16:40:28;33.20;1.00
8481;DHT22;4277;51.354;6.740;2022-07-24T16:42:53;33.40;1.00
8481;DHT22;4277;51.354;6.740;2022-07-24T16:45:19;33.40;1.00
8481;DHT22;4277;51.354;6.740;2022-07-24T16:47:44;33.50;1.00
8481;DHT22;4277;51.354;6.740;2022-07-24T16:50:10;33.60;1.00
8481;DHT22;4277;51.354;6.740;2022-07-24T16:52:36;33.70;1.00
8481;DHT22;4277;51.354;6.740;2022-07-24T16:57:27;34.20;1.00
8481;DHT22;4277;51.354;6.740;2022-07-24T16:59:53;34.50;1.00
8481;DHT22;4277;51.354;6.740;2022-07-24T17:02:19;34.50;1.00
8481;DHT22;4277;51.354;6.740;2022-07-24T17:12:02;35.10;1.00
8481;DHT22;4277;51.354;6.740;2022-07-24T17:14:28;37.90;1.00
8481;DHT22;4277;51.354;6.740;2022-07-24T17:16:55;37.90;1.00
8481;DHT22;4277;51.354;6.740;2022-07-24T17:19:21;38.00;1.00
8481;DHT22;4277;51.354;6.740;2022-07-24T17:22:00;38.30;1.00
8481;DHT22;4277;51.354;6.740;2022-07-24T17:24:27;38.30;1.00
8481;DHT22;4277;51.354;6.740;2022-07-24T17:26:53;38.40;1.00
8481;DHT22;4277;51.354;6.740;2022-07-24T17:29:18;38.70;1.00
8481;DHT22;4277;51.354;6.740;2022-07-24T17:31:44;38.70;1.00
8481;DHT22;4277;51.354;6.740;2022-07-24T17:34:09;38.50;1.00
8481;DHT22;4277;51.354;6.740;2022-07-24T17:36:35;38.80;1.00
8481;DHT22;4277;51.354;6.740;2022-07-24T17:39:00;39.00;1.00
8481;DHT22;4277;51.354;6.740;2022-07-24T17:41:26;39.10;1.00
8481;DHT22;4277;51.354;6.740;2022-07-24T17:43:51;38.90;1.00
8481;DHT22;4277;51.354;6.740;2022-07-24T17:46:17;38.70;1.00
8481;DHT22;4277;51.354;6.740;2022-07-24T17:48:42;39.00;1.00
8481;DHT22;4277;51.354;6.740;2022-07-24T17:51:08;38.90;1.00
8481;DHT22;4277;51.354;6.740;2022-07-24T17:53:33;38.70;1.00
8481;DHT22;4277;51.354;6.740;2022-07-24T17:55:59;38.70;1.00
8481;DHT22;4277;51.354;6.740;2022-07-24T17:58:24;38.40;1.00
8481;DHT22;4277;51.354;6.740;2022-07-24T18:00:50;38.10;1.00
8481;DHT22;4277;51.354;6.740;2022-07-24T18:49:34;37.60;1.00
8481;DHT22;4277;51.354;6.740;2022-07-24T18:52:00;30.20;1.00
8481;DHT22;4277;51.354;6.740;2022-07-24T18:54:25;30.00;1.00
8481;DHT22;4277;51.354;6.740;2022-07-24T18:56:51;29.90;1.00
8481;DHT22;4277;51.354;6.740;2022-07-24T18:59:16;29.80;1.00
8481;DHT22;4277;51.354;6.740;2022-07-24T19:01:42;29.70;1.00
8481;DHT22;4277;51.354;6.740;2022-07-24T19:04:07;29.30;1.80
8481;DHT22;4277;51.354;6.740;2022-07-24T19:06:33;29.00;4.20
8481;DHT22;4277;51.354;6.740;2022-07-24T19:08:58;28.70;10.20
8481;DHT22;4277;51.354;6.740;2022-07-24T19:11:24;28.60;11.30
8481;DHT22;4277;51.354;6.740;2022-07-24T19:13:50;28.50;15.30
8481;DHT22;4277;51.354;6.740;2022-07-24T19:16:15;28.40;16.30
8481;DHT22;4277;51.354;6.740;2022-07-24T19:18:41;28.30;16.40
8481;DHT22;4277;51.354;6.740;2022-07-24T19:21:07;28.20;18.10
8481;DHT22;4277;51.354;6.740;2022-07-24T19:23:33;28.10;20.60
8481;DHT22;4277;51.354;6.740;2022-07-24T19:26:00;28.10;21.80
8481;DHT22;4277;51.354;6.740;2022-07-24T19:28:26;28.00;16.00
8481;DHT22;4277;51.354;6.740;2022-07-24T19:30:51;27.90;15.70
8481;DHT22;4277;51.354;6.740;2022-07-24T19:33:17;27.80;20.60
8481;DHT22;4277;51.354;6.740;2022-07-24T19:35:43;27.60;28.60
8481;DHT22;4277;51.354;6.740;2022-07-24T19:38:08;27.50;30.60
8481;DHT22;4277;51.354;6.740;2022-07-24T19:40:34;27.40;31.90
8481;DHT22;4277;51.354;6.740;2022-07-24T19:42:59;27.40;29.60
8481;DHT22;4277;51.354;6.740;2022-07-24T19:45:25;27.30;25.50
8481;DHT22;4277;51.354;6.740;2022-07-24T19:47:50;27.20;35.90
8481;DHT22;4277;51.354;6.740;2022-07-24T19:50:16;27.10;37.50
8481;DHT22;4277;51.354;6.740;2022-07-24T19:52:42;27.00;42.00
8481;DHT22;4277;51.354;6.740;2022-07-24T19:55:07;26.90;41.80
8481;DHT22;4277;51.354;6.740;2022-07-24T19:57:33;26.90;46.60
8481;DHT22;4277;51.354;6.740;2022-07-24T19:59:59;26.70;47.40
8481;DHT22;4277;51.354;6.740;2022-07-24T20:02:24;26.70;48.00
8481;DHT22;4277;51.354;6.740;2022-07-24T20:04:50;26.60;45.00
8481;DHT22;4277;51.354;6.740;2022-07-24T20:07:15;26.60;46.40
8481;DHT22;4277;51.354;6.740;2022-07-24T20:09:41;26.60;46.40
8481;DHT22;4277;51.354;6.740;2022-07-24T20:12:07;26.50;44.00
8481;DHT22;4277;51.354;6.740;2022-07-24T20:14:32;26.40;51.90
8481;DHT22;4277;51.354;6.740;2022-07-24T20:16:58;26.30;58.30
8481;DHT22;4277;51.354;6.740;2022-07-24T20:19:23;26.20;60.00
8481;DHT22;4277;51.354;6.740;2022-07-24T20:21:49;26.10;56.00
8481;DHT22;4277;51.354;6.740;2022-07-24T20:24:15;26.10;56.80
8481;DHT22;4277;51.354;6.740;2022-07-24T20:26:40;26.00;62.30
8481;DHT22;4277;51.354;6.740;2022-07-24T20:29:06;26.00;63.10
8481;DHT22;4277;51.354;6.740;2022-07-24T20:31:31;25.90;66.10
8481;DHT22;4277;51.354;6.740;2022-07-24T20:33:57;25.80;66.50
8481;DHT22;4277;51.354;6.740;2022-07-24T20:36:29;25.80;68.80
8481;DHT22;4277;51.354;6.740;2022-07-24T20:38:55;25.70;69.40
8481;DHT22;4277;51.354;6.740;2022-07-24T20:41:21;25.70;71.60
8481;DHT22;4277;51.354;6.740;2022-07-24T20:43:46;25.60;67.50
8481;DHT22;4277;51.354;6.740;2022-07-24T20:46:12;25.50;69.70
8481;DHT22;4277;51.354;6.740;2022-07-24T20:48:37;25.50;72.10
8481;DHT22;4277;51.354;6.740;2022-07-24T20:51:03;25.50;70.70
8481;DHT22;4277;51.354;6.740;2022-07-24T20:53:28;25.40;73.60
8481;DHT22;4277;51.354;6.740;2022-07-24T20:55:55;25.40;73.80
8481;DHT22;4277;51.354;6.740;2022-07-24T20:58:20;25.30;73.60
8481;DHT22;4277;51.354;6.740;2022-07-24T21:00:46;25.30;70.60
8481;DHT22;4277;51.354;6.740;2022-07-24T21:03:11;25.20;73.40
8481;DHT22;4277;51.354;6.740;2022-07-24T21:05:37;25.20;75.10
8481;DHT22;4277;51.354;6.740;2022-07-24T21:08:03;25.10;76.50
8481;DHT22;4277;51.354;6.740;2022-07-24T21:10:28;25.10;77.20
8481;DHT22;4277;51.354;6.740;2022-07-24T21:12:54;25.10;78.00
8481;DHT22;4277;51.354;6.740;2022-07-24T21:15:19;25.00;80.20
8481;DHT22;4277;51.354;6.740;2022-07-24T21:17:45;25.00;82.10
8481;DHT22;4277;51.354;6.740;2022-07-24T21:20:14;25.00;82.70
8481;DHT22;4277;51.354;6.740;2022-07-24T21:22:40;24.90;82.90
8481;DHT22;4277;51.354;6.740;2022-07-24T21:25:07;24.90;83.90
8481;DHT22;4277;51.354;6.740;2022-07-24T21:27:32;24.80;85.70
8481;DHT22;4277;51.354;6.740;2022-07-24T21:29:59;24.80;86.60
8481;DHT22;4277;51.354;6.740;2022-07-24T21:32:25;24.80;88.70
8481;DHT22;4277;51.354;6.740;2022-07-24T21:34:51;24.70;90.00
8481;DHT22;4277;51.354;6.740;2022-07-24T21:37:17;24.60;90.60
8481;DHT22;4277;51.354;6.740;2022-07-24T21:39:42;24.60;91.10
8481;DHT22;4277;51.354;6.740;2022-07-24T21:42:09;24.60;91.50
8481;DHT22;4277;51.354;6.740;2022-07-24T21:44:34;24.60;92.00
8481;DHT22;4277;51.354;6.740;2022-07-24T21:47:00;24.50;92.50
8481;DHT22;4277;51.354;6.740;2022-07-24T21:49:25;24.50;93.30
8481;DHT22;4277;51.354;6.740;2022-07-24T21:51:51;24.40;94.00
8481;DHT22;4277;51.354;6.740;2022-07-24T21:54:17;24.40;94.20
8481;DHT22;4277;51.354;6.740;2022-07-24T21:56:42;24.30;94.30
8481;DHT22;4277;51.354;6.740;2022-07-24T21:59:08;24.30;94.60
8481;DHT22;4277;51.354;6.740;2022-07-24T22:01:34;24.30;94.40
8481;DHT22;4277;51.354;6.740;2022-07-24T22:03:59;24.30;94.90
8481;DHT22;4277;51.354;6.740;2022-07-24T22:06:25;24.20;95.00
8481;DHT22;4277;51.354;6.740;2022-07-24T22:08:51;24.20;94.10
8481;DHT22;4277;51.354;6.740;2022-07-24T22:11:16;24.20;95.40
8481;DHT22;4277;51.354;6.740;2022-07-24T22:13:42;24.20;95.40
8481;DHT22;4277;51.354;6.740;2022-07-24T22:16:07;24.20;95.30
8481;DHT22;4277;51.354;6.740;2022-07-24T22:18:33;24.20;96.50
8481;DHT22;4277;51.354;6.740;2022-07-24T22:20:59;24.10;96.10
8481;DHT22;4277;51.354;6.740;2022-07-24T22:23:24;24.00;96.60
8481;DHT22;4277;51.354;6.740;2022-07-24T22:25:50;24.00;97.00
8481;DHT22;4277;51.354;6.740;2022-07-24T22:28:15;24.00;97.80
8481;DHT22;4277;51.354;6.740;2022-07-24T22:30:41;23.90;97.60
8481;DHT22;4277;51.354;6.740;2022-07-24T22:33:06;23.90;97.90
8481;DHT22;4277;51.354;6.740;2022-07-24T22:35:32;23.80;98.90
8481;DHT22;4277;51.354;6.740;2022-07-24T22:37:59;23.70;99.00
8481;DHT22;4277;51.354;6.740;2022-07-24T22:40:25;23.70;98.80
8481;DHT22;4277;51.354;6.740;2022-07-24T22:42:51;23.70;99.50
8481;DHT22;4277;51.354;6.740;2022-07-24T22:45:18;23.60;99.20
8481;DHT22;4277;51.354;6.740;2022-07-24T22:47:45;23.60;99.50
8481;DHT22;4277;51.354;6.740;2022-07-24T22:50:12;23.50;99.90
8481;DHT22;4277;51.354;6.740;2022-07-24T22:55:04;23.40;99.90
8481;DHT22;4277;51.354;6.740;2022-07-24T22:57:32;23.40;99.90
8481;DHT22;4277;51.354;6.740;2022-07-24T22:59:58;23.40;99.90
8481;DHT22;4277;51.354;6.740;2022-07-24T23:02:24;23.40;99.90
8481;DHT22;4277;51.354;6.740;2022-07-24T23:04:50;23.30;99.90
